createdAt,value
2022-12-01T00:01:35.540Z,8.90
2022-12-01T00:04:03.902Z,10.00
2022-12-01T00:06:32.197Z,9.10
2022-12-01T00:09:20.336Z,8.80
2022-12-01T00:11:49.149Z,9.40
2022-12-01T00:14:17.760Z,8.70
2022-12-01T00:16:46.012Z,9.50
2022-12-01T00:19:14.282Z,8.50
2022-12-01T00:21:42.135Z,10.70
2022-12-01T00:24:12.257Z,9.20
2022-12-01T00:26:40.642Z,8.00
2022-12-01T00:29:09.535Z,9.90
2022-12-01T00:31:38.155Z,9.50
2022-12-01T00:34:11.127Z,8.60
2022-12-01T00:36:39.802Z,7.80
2022-12-01T00:39:08.579Z,8.40
2022-12-01T00:41:36.509Z,7.90
2022-12-01T00:44:05.407Z,8.00
2022-12-01T00:46:33.486Z,8.20
2022-12-01T00:49:01.994Z,7.60
2022-12-01T00:51:30.914Z,7.90
2022-12-01T00:53:59.263Z,7.00
2022-12-01T00:56:27.543Z,7.50
2022-12-01T00:58:56.145Z,7.20
2022-12-01T01:01:24.352Z,7.40
2022-12-01T01:03:52.321Z,7.10
2022-12-01T01:06:20.240Z,6.80
2022-12-01T01:08:48.290Z,6.60
2022-12-01T01:11:16.380Z,7.70
2022-12-01T01:13:44.306Z,6.20
2022-12-01T01:16:22.491Z,6.60
2022-12-01T01:18:50.489Z,6.20
2022-12-01T01:21:21.397Z,6.80
2022-12-01T01:23:51.449Z,6.00
2022-12-01T01:26:29.694Z,5.50
2022-12-01T01:29:02.632Z,6.30
2022-12-01T01:31:31.993Z,5.70
2022-12-01T01:34:00.824Z,6.40
2022-12-01T01:36:28.948Z,6.60
2022-12-01T01:38:56.922Z,6.60
2022-12-01T01:41:25.418Z,6.30
2022-12-01T01:44:04.398Z,6.40
2022-12-01T01:46:35.327Z,6.30
2022-12-01T01:49:11.730Z,6.10
2022-12-01T01:51:53.199Z,6.50
2022-12-01T01:54:29.287Z,6.50
2022-12-01T01:57:00.213Z,5.60
2022-12-01T01:59:39.423Z,5.40
2022-12-01T02:02:11.003Z,7.20
2022-12-01T02:04:46.092Z,5.50
2022-12-01T02:07:19.397Z,6.00
2022-12-01T02:09:47.671Z,5.80
2022-12-01T02:12:54.593Z,5.70
2022-12-01T02:15:50.824Z,5.00
2022-12-01T02:18:43.269Z,5.50
2022-12-01T02:21:20.553Z,6.00
2022-12-01T02:24:40.420Z,5.70
2022-12-01T02:27:49.473Z,6.00
2022-12-01T02:30:38.553Z,5.90
2022-12-01T02:33:22.926Z,5.90
2022-12-01T02:36:06.014Z,5.80
2022-12-01T02:38:51.722Z,5.50
2022-12-01T02:41:51.319Z,5.60
2022-12-01T02:44:30.449Z,5.40
2022-12-01T02:47:19.740Z,5.90
2022-12-01T02:49:55.463Z,5.60
2022-12-01T02:52:27.027Z,5.90
2022-12-01T02:54:57.146Z,5.60
2022-12-01T02:57:25.103Z,5.20
2022-12-01T02:59:56.048Z,5.20
2022-12-01T03:02:43.492Z,4.90
2022-12-01T03:05:54.347Z,5.70
2022-12-01T03:08:46.204Z,5.80
2022-12-01T03:11:30.016Z,5.50
2022-12-01T03:14:14.390Z,6.10
2022-12-01T03:16:54.320Z,4.80
2022-12-01T03:19:37.651Z,5.40
2022-12-01T03:22:14.341Z,5.60
2022-12-01T03:24:47.906Z,5.50
2022-12-01T03:27:21.174Z,5.50
2022-12-01T03:29:55.973Z,5.70
2022-12-01T03:32:32.464Z,5.40
2022-12-01T03:35:09.219Z,5.60
2022-12-01T03:37:51.819Z,5.30
2022-12-01T03:40:27.307Z,5.10
2022-12-01T03:43:01.775Z,5.60
2022-12-01T03:45:51.305Z,5.80
2022-12-01T03:48:19.811Z,5.70
2022-12-01T03:50:58.445Z,5.10
2022-12-01T03:53:35.429Z,5.00
2022-12-01T03:56:07.411Z,5.50
2022-12-01T03:58:44.381Z,5.50
2022-12-01T04:01:13.266Z,5.50
2022-12-01T04:03:41.238Z,6.10
2022-12-01T04:06:09.075Z,5.50
2022-12-01T04:08:38.207Z,4.70
2022-12-01T04:11:32.210Z,5.50
2022-12-01T04:14:00.824Z,5.10
2022-12-01T04:16:28.821Z,5.30
2022-12-01T04:18:56.902Z,5.70
2022-12-01T04:21:25.072Z,5.70
2022-12-01T04:24:02.473Z,5.20
2022-12-01T04:26:37.371Z,6.30
2022-12-01T04:31:36.659Z,5.20
2022-12-01T04:34:05.405Z,5.30
2022-12-01T04:36:37.188Z,5.40
2022-12-01T04:39:05.654Z,5.90
2022-12-01T04:41:34.828Z,5.70
2022-12-01T04:44:03.116Z,5.20
2022-12-01T04:46:31.219Z,5.20
2022-12-01T04:48:59.454Z,5.00
2022-12-01T04:51:27.438Z,5.00
2022-12-01T04:53:56.939Z,5.50
2022-12-01T04:56:25.085Z,5.00
2022-12-01T04:58:53.306Z,4.90
2022-12-01T05:01:21.407Z,5.60
2022-12-01T05:03:49.783Z,4.80
2022-12-01T05:06:24.605Z,5.60
2022-12-01T05:11:26.971Z,5.60
2022-12-01T05:13:55.326Z,5.70
2022-12-01T05:16:31.938Z,5.50
2022-12-01T05:19:23.945Z,5.00
2022-12-01T05:21:52.731Z,5.80
2022-12-01T05:24:21.874Z,5.20
2022-12-01T05:26:49.903Z,5.80
2022-12-01T05:29:18.194Z,6.00
2022-12-01T05:31:47.051Z,4.90
2022-12-01T05:34:15.322Z,5.00
2022-12-01T05:36:43.326Z,5.40
2022-12-01T05:39:11.200Z,4.70
2022-12-01T05:41:39.254Z,5.60
2022-12-01T05:44:07.309Z,5.40
2022-12-01T05:46:35.261Z,5.00
2022-12-01T05:49:03.570Z,5.40
2022-12-01T05:51:31.673Z,5.60
2022-12-01T05:54:00.637Z,6.10
2022-12-01T05:56:28.709Z,7.20
2022-12-01T05:58:57.393Z,8.20
2022-12-01T06:01:25.466Z,6.70
2022-12-01T06:03:54.487Z,6.40
2022-12-01T06:06:22.736Z,6.80
2022-12-01T06:08:50.909Z,6.80
2022-12-01T06:11:19.096Z,6.60
2022-12-01T06:13:47.469Z,6.00
2022-12-01T06:16:15.355Z,6.50
2022-12-01T06:18:43.604Z,6.40
2022-12-01T06:21:11.551Z,6.00
2022-12-01T06:23:39.528Z,6.70
2022-12-01T06:26:07.411Z,7.30
2022-12-01T06:28:35.411Z,6.20
2022-12-01T06:31:03.968Z,6.50
2022-12-01T06:33:32.780Z,7.30
2022-12-01T06:36:04.363Z,6.20
2022-12-01T06:38:35.469Z,6.10
2022-12-01T06:41:06.223Z,6.10
2022-12-01T06:43:38.060Z,6.00
2022-12-01T06:46:06.967Z,6.40
2022-12-01T06:48:35.625Z,6.40
2022-12-01T06:51:04.105Z,6.00
2022-12-01T06:53:32.778Z,6.80
2022-12-01T06:56:03.274Z,6.20
2022-12-01T06:58:32.018Z,6.70
2022-12-01T07:01:01.069Z,5.40
2022-12-01T07:03:29.028Z,5.80
2022-12-01T07:05:59.919Z,6.60
2022-12-01T07:08:32.817Z,5.50
2022-12-01T07:11:12.597Z,7.10
2022-12-01T07:13:43.088Z,6.40
2022-12-01T07:16:11.663Z,6.70
2022-12-01T07:18:40.699Z,6.40
2022-12-01T07:21:14.042Z,6.50
2022-12-01T07:23:42.640Z,6.20
2022-12-01T07:26:15.175Z,5.70
2022-12-01T07:28:44.860Z,6.20
2022-12-01T07:31:19.994Z,6.40
2022-12-01T07:33:47.932Z,5.40
2022-12-01T07:36:16.267Z,5.70
2022-12-01T07:38:44.469Z,6.00
2022-12-01T07:41:21.525Z,6.30
2022-12-01T07:43:51.798Z,5.80
2022-12-01T07:46:24.177Z,5.90
2022-12-01T07:48:54.865Z,6.40
2022-12-01T07:51:25.130Z,5.80
2022-12-01T07:53:54.828Z,6.00
2022-12-01T07:56:23.636Z,5.80
2022-12-01T07:58:51.880Z,7.40
2022-12-01T08:01:23.094Z,6.90
2022-12-01T08:03:58.022Z,5.90
2022-12-01T08:06:26.886Z,6.40
2022-12-01T08:08:55.488Z,6.50
2022-12-01T08:11:30.180Z,6.40
2022-12-01T08:16:26.618Z,6.20
2022-12-01T08:18:55.098Z,5.90
2022-12-01T08:21:24.289Z,6.30
2022-12-01T08:23:55.476Z,6.30
2022-12-01T08:26:26.168Z,6.40
2022-12-01T08:28:54.342Z,5.50
2022-12-01T08:31:28.175Z,5.30
2022-12-01T08:33:57.350Z,5.80
2022-12-01T08:36:26.340Z,6.40
2022-12-01T08:38:56.093Z,6.10
2022-12-01T08:41:25.353Z,5.40
2022-12-01T08:43:58.259Z,5.30
2022-12-01T08:46:35.302Z,6.60
2022-12-01T08:49:06.157Z,5.80
2022-12-01T08:51:34.536Z,5.00
2022-12-01T08:54:02.710Z,6.10
2022-12-01T08:56:37.049Z,6.50
2022-12-01T09:01:34.929Z,5.90
2022-12-01T09:04:08.485Z,6.20
2022-12-01T09:06:44.046Z,6.00
2022-12-01T09:09:18.006Z,5.90
2022-12-01T09:11:47.886Z,5.60
2022-12-01T09:14:18.246Z,7.30
2022-12-01T09:16:50.068Z,6.20
2022-12-01T09:19:24.541Z,6.00
2022-12-01T09:21:53.485Z,6.30
2022-12-01T09:24:23.384Z,5.50
2022-12-01T09:26:56.708Z,5.80
2022-12-01T09:29:26.097Z,5.70
2022-12-01T09:31:59.414Z,6.30
2022-12-01T09:34:29.313Z,6.90
2022-12-01T09:36:58.725Z,5.90
2022-12-01T09:39:26.679Z,5.80
2022-12-01T09:42:08.502Z,6.90
2022-12-01T09:44:54.347Z,6.40
2022-12-01T09:50:19.746Z,5.80
2022-12-01T09:52:53.993Z,6.40
2022-12-01T09:55:25.770Z,6.70
2022-12-01T09:57:58.303Z,5.50
2022-12-01T10:00:31.720Z,6.40
2022-12-01T10:03:55.521Z,6.40
2022-12-01T10:06:37.145Z,5.70
2022-12-01T10:09:36.243Z,5.90
2022-12-01T10:12:18.628Z,6.00
2022-12-01T10:14:48.905Z,5.70
2022-12-01T10:17:47.631Z,6.40
2022-12-01T10:20:29.063Z,6.00
2022-12-01T10:23:36.217Z,5.80
2022-12-01T10:26:15.518Z,5.60
2022-12-01T10:29:13.096Z,5.80
2022-12-01T10:31:57.968Z,6.30
2022-12-01T10:34:34.782Z,6.10
2022-12-01T10:37:03.543Z,6.00
2022-12-01T10:39:44.264Z,5.80
2022-12-01T10:42:26.913Z,6.70
2022-12-01T10:45:02.981Z,6.80
2022-12-01T10:47:32.202Z,5.90
2022-12-01T10:50:00.446Z,5.90
2022-12-01T10:52:41.853Z,6.30
2022-12-01T10:55:28.571Z,5.70
2022-12-01T10:58:04.729Z,6.10
2022-12-01T11:00:59.063Z,6.70
2022-12-01T11:03:35.955Z,6.70
2022-12-01T11:06:07.781Z,6.40
2022-12-01T11:08:52.083Z,6.10
2022-12-01T11:11:40.642Z,6.60
2022-12-01T11:14:53.760Z,6.20
2022-12-01T11:17:29.827Z,6.50
2022-12-01T11:19:59.007Z,7.50
2022-12-01T11:22:32.031Z,6.00
2022-12-01T11:25:02.675Z,5.30
2022-12-01T11:28:01.944Z,5.80
2022-12-01T11:30:33.104Z,7.00
2022-12-01T11:33:04.540Z,5.70
2022-12-01T11:35:37.852Z,6.40
2022-12-01T11:38:29.184Z,5.40
2022-12-01T11:40:58.177Z,6.50
2022-12-01T11:43:35.496Z,6.20
2022-12-01T11:46:08.157Z,6.00
2022-12-01T11:48:36.841Z,5.60
2022-12-01T11:51:32.122Z,6.00
2022-12-01T11:54:26.262Z,5.70
2022-12-01T11:57:25.556Z,5.90
2022-12-01T11:59:43.381Z,6.70
2022-12-01T12:02:32.507Z,6.80
2022-12-01T12:05:34.559Z,5.70
2022-12-01T12:08:55.413Z,5.40
2022-12-01T12:12:07.702Z,5.80
2022-12-01T12:14:57.097Z,6.70
2022-12-01T12:18:08.695Z,6.00
2022-12-01T12:21:20.658Z,5.90
2022-12-01T12:23:55.698Z,6.30
2022-12-01T12:26:29.931Z,6.50
2022-12-01T12:29:35.032Z,5.90
2022-12-01T12:32:25.656Z,7.10
2022-12-01T12:35:16.435Z,7.20
2022-12-01T12:38:21.780Z,6.10
2022-12-01T12:41:38.977Z,5.90
2022-12-01T12:44:40.768Z,6.00
2022-12-01T12:48:05.709Z,6.20
2022-12-01T12:50:51.958Z,6.50
2022-12-01T12:53:32.092Z,7.10
2022-12-01T12:56:05.908Z,6.40
2022-12-01T12:58:55.404Z,6.10
2022-12-01T13:01:32.436Z,6.70
2022-12-01T13:04:09.777Z,6.10
2022-12-01T13:06:48.499Z,6.10
2022-12-01T13:09:44.502Z,6.40
2022-12-01T13:12:28.391Z,6.60
2022-12-01T13:15:15.589Z,7.10
2022-12-01T13:18:20.831Z,6.10
2022-12-01T13:20:51.166Z,5.90
2022-12-01T13:23:22.150Z,8.20
2022-12-01T13:25:56.280Z,7.10
2022-12-01T13:28:45.516Z,6.80
2022-12-01T13:31:16.352Z,6.80
2022-12-01T13:34:06.047Z,6.50
2022-12-01T13:36:49.742Z,7.70
2022-12-01T13:39:26.552Z,7.30
2022-12-01T13:42:20.282Z,7.00
2022-12-01T13:44:57.369Z,6.70
2022-12-01T13:47:46.819Z,7.20
2022-12-01T13:50:43.147Z,6.50
2022-12-01T13:53:25.269Z,6.40
2022-12-01T13:56:15.216Z,7.00
2022-12-01T13:58:52.035Z,7.40
2022-12-01T14:01:20.181Z,7.70
2022-12-01T14:04:27.162Z,7.50
2022-12-01T14:07:37.099Z,9.50
2022-12-01T14:10:28.831Z,7.80
2022-12-01T14:13:04.961Z,7.50
2022-12-01T14:15:42.873Z,8.20
2022-12-01T14:18:44.497Z,8.20
2022-12-01T14:21:14.720Z,8.40
2022-12-01T14:23:57.341Z,8.00
2022-12-01T14:26:28.592Z,8.30
2022-12-01T14:29:02.824Z,7.40
2022-12-01T14:31:33.689Z,7.40
2022-12-01T14:34:26.637Z,9.60
2022-12-01T14:37:18.434Z,8.30
2022-12-01T14:39:58.671Z,8.90
2022-12-01T14:42:58.750Z,7.40
2022-12-01T14:45:44.607Z,8.40
2022-12-01T14:48:28.118Z,7.80
2022-12-01T14:51:26.412Z,8.60
2022-12-01T14:53:58.498Z,7.80
2022-12-01T14:56:29.535Z,9.00
2022-12-01T14:59:15.644Z,7.20
2022-12-01T15:01:44.318Z,8.40
2022-12-01T15:04:14.206Z,7.80
2022-12-01T15:06:42.896Z,8.30
2022-12-01T15:09:36.839Z,8.00
2022-12-01T15:12:07.909Z,7.30
2022-12-01T15:14:47.283Z,7.30
2022-12-01T15:17:32.620Z,8.50
2022-12-01T15:20:01.719Z,6.80
2022-12-01T15:22:34.050Z,8.30
2022-12-01T15:25:16.157Z,7.80
2022-12-01T15:27:44.986Z,7.50
2022-12-01T15:30:17.197Z,8.90
2022-12-01T15:32:46.143Z,7.10
2022-12-01T15:35:24.176Z,8.10
2022-12-01T15:37:54.074Z,7.50
2022-12-01T15:43:23.365Z,7.90
2022-12-01T15:45:56.735Z,7.70
2022-12-01T15:48:36.670Z,9.00
2022-12-01T15:51:10.644Z,8.60
2022-12-01T15:53:48.338Z,8.10
2022-12-01T15:56:26.067Z,7.50
2022-12-01T15:59:10.180Z,8.60
2022-12-01T16:01:41.944Z,9.40
2022-12-01T16:04:32.450Z,7.80
2022-12-01T16:07:07.177Z,8.00
2022-12-01T16:09:42.817Z,7.90
2022-12-01T16:12:16.928Z,8.90
2022-12-01T16:14:57.222Z,8.00
2022-12-01T16:17:27.155Z,7.70
2022-12-01T16:20:19.345Z,8.10
2022-12-01T16:22:56.755Z,8.20
2022-12-01T16:25:55.606Z,7.80
2022-12-01T16:28:35.997Z,9.30
2022-12-01T16:31:06.050Z,8.40
2022-12-01T16:33:38.930Z,8.70
2022-12-01T16:36:08.185Z,8.80
2022-12-01T16:38:36.982Z,8.80
2022-12-01T16:41:37.811Z,8.70
2022-12-01T16:44:27.572Z,7.50
2022-12-01T16:46:55.348Z,8.00
2022-12-01T16:49:24.071Z,8.20
2022-12-01T16:51:56.868Z,8.00
2022-12-01T16:54:25.943Z,8.20
2022-12-01T16:56:54.614Z,8.20
2022-12-01T16:59:22.830Z,8.50
2022-12-01T17:01:51.264Z,7.80
2022-12-01T17:04:19.334Z,8.10
2022-12-01T17:06:47.419Z,8.10
2022-12-01T17:09:15.482Z,8.40
2022-12-01T17:11:43.640Z,8.10
2022-12-01T17:14:12.027Z,8.20
2022-12-01T17:16:40.192Z,8.20
2022-12-01T17:19:08.178Z,7.70
2022-12-01T17:21:36.035Z,7.80
2022-12-01T17:24:04.618Z,8.80
2022-12-01T17:26:32.698Z,8.60
2022-12-01T17:29:01.548Z,7.60
2022-12-01T17:31:29.708Z,8.10
2022-12-01T17:33:58.040Z,7.60
2022-12-01T17:36:26.012Z,8.20
2022-12-01T17:38:54.340Z,8.00
2022-12-01T17:41:24.918Z,7.50
2022-12-01T17:43:52.992Z,7.80
2022-12-01T17:46:21.970Z,7.10
2022-12-01T17:48:50.570Z,7.60
2022-12-01T17:51:19.185Z,7.90
2022-12-01T17:53:47.603Z,8.00
2022-12-01T17:56:17.562Z,7.20
2022-12-01T17:58:45.610Z,8.40
2022-12-01T18:01:17.702Z,7.60
2022-12-01T18:03:48.581Z,8.10
2022-12-01T18:06:18.569Z,7.80
2022-12-01T18:08:47.413Z,7.70
2022-12-01T18:11:17.629Z,7.00
2022-12-01T18:13:49.921Z,7.50
2022-12-01T18:16:25.436Z,7.30
2022-12-01T18:18:55.364Z,7.50
2022-12-01T18:21:25.060Z,8.00
2022-12-01T18:24:02.385Z,7.60
2022-12-01T18:26:35.562Z,7.00
2022-12-01T18:29:16.206Z,7.50
2022-12-01T18:31:45.409Z,7.30
2022-12-01T18:34:13.411Z,7.50
2022-12-01T18:36:42.104Z,7.00
2022-12-01T18:39:11.750Z,7.50
2022-12-01T18:41:41.724Z,8.30
2022-12-01T18:44:10.716Z,8.40
2022-12-01T18:46:38.998Z,7.50
2022-12-01T18:49:09.230Z,7.40
2022-12-01T18:51:38.971Z,7.60
2022-12-01T18:54:12.095Z,7.50
2022-12-01T18:56:40.167Z,7.80
2022-12-01T18:59:11.692Z,7.00
2022-12-01T19:01:44.263Z,8.00
2022-12-01T19:04:15.328Z,8.00
2022-12-01T19:06:45.738Z,7.30
2022-12-01T19:09:16.181Z,7.40
2022-12-01T19:11:44.899Z,7.10
2022-12-01T19:14:19.775Z,7.90
2022-12-01T19:16:48.774Z,7.20
2022-12-01T19:19:16.901Z,8.50
2022-12-01T19:21:45.795Z,7.60
2022-12-01T19:24:15.647Z,6.70
2022-12-01T19:26:43.685Z,7.50
2022-12-01T19:29:12.157Z,7.50
2022-12-01T19:31:40.648Z,8.00
2022-12-01T19:34:08.917Z,8.10
2022-12-01T19:36:37.205Z,7.40
2022-12-01T19:39:07.669Z,6.90
2022-12-01T19:41:38.966Z,7.70
2022-12-01T19:44:07.657Z,7.60
2022-12-01T19:46:35.862Z,7.70
2022-12-01T19:49:05.434Z,7.40
2022-12-01T19:51:36.977Z,6.80
2022-12-01T19:54:16.643Z,7.20
2022-12-01T19:56:45.810Z,8.30
2022-12-01T19:59:15.067Z,7.20
2022-12-01T20:01:44.273Z,7.60
2022-12-01T20:04:12.298Z,7.40
2022-12-01T20:06:40.370Z,8.00
2022-12-01T20:09:09.666Z,6.70
2022-12-01T20:11:37.742Z,7.60
2022-12-01T20:14:07.770Z,6.40
2022-12-01T20:16:35.994Z,6.80
2022-12-01T20:19:05.807Z,6.60
2022-12-01T20:21:42.635Z,6.90
2022-12-01T20:24:15.184Z,7.50
2022-12-01T20:26:48.126Z,6.20
2022-12-01T20:29:28.726Z,6.90
2022-12-01T20:32:00.045Z,7.10
2022-12-01T20:34:34.508Z,8.30
2022-12-01T20:37:04.630Z,6.60
2022-12-01T20:39:35.489Z,7.80
2022-12-01T20:42:05.946Z,6.20
2022-12-01T20:44:35.166Z,9.80
2022-12-01T20:47:04.267Z,8.10
2022-12-01T20:49:33.009Z,9.10
2022-12-01T20:52:01.269Z,7.00
2022-12-01T20:54:30.219Z,8.00
2022-12-01T20:56:59.863Z,7.00
2022-12-01T20:59:29.375Z,6.70
2022-12-01T21:01:57.369Z,8.30
2022-12-01T21:04:25.580Z,7.50
2022-12-01T21:06:57.869Z,7.60
2022-12-01T21:09:27.089Z,10.10
2022-12-01T21:12:17.968Z,7.50
2022-12-01T21:15:02.291Z,7.90
2022-12-01T21:17:42.139Z,9.60
2022-12-01T21:20:28.197Z,7.60
2022-12-01T21:23:06.091Z,7.80
2022-12-01T21:25:38.900Z,7.50
2022-12-01T21:28:21.083Z,6.80
2022-12-01T21:30:58.929Z,8.80
2022-12-01T21:33:36.983Z,7.70
2022-12-01T21:36:22.810Z,9.40
2022-12-01T21:38:58.736Z,8.00
2022-12-01T21:41:30.812Z,8.10
2022-12-01T21:44:19.961Z,9.70
2022-12-01T21:46:56.435Z,8.30
2022-12-01T21:49:39.507Z,8.70
2022-12-01T21:52:19.690Z,8.20
2022-12-01T21:54:48.345Z,7.70
2022-12-01T21:57:43.934Z,7.60
2022-12-01T22:00:34.307Z,8.80
2022-12-01T22:03:08.948Z,8.70
2022-12-01T22:05:40.976Z,9.00
2022-12-01T22:08:15.009Z,7.20
2022-12-01T22:11:18.847Z,8.80
2022-12-01T22:14:22.225Z,8.40
2022-12-01T22:17:05.617Z,7.30
2022-12-01T22:19:38.595Z,7.70
2022-12-01T22:22:09.679Z,8.20
2022-12-01T22:24:51.801Z,8.70
2022-12-01T22:27:33.065Z,8.20
2022-12-01T22:30:22.646Z,6.90
2022-12-01T22:33:01.367Z,7.50
2022-12-01T22:35:33.524Z,8.00
2022-12-01T22:38:20.419Z,7.80
2022-12-01T22:40:48.398Z,8.10
2022-12-01T22:43:16.306Z,8.00
2022-12-01T22:45:48.544Z,7.30
2022-12-01T22:48:22.554Z,6.50
2022-12-01T22:50:52.104Z,7.00
2022-12-01T22:53:30.422Z,7.50
2022-12-01T22:56:00.927Z,7.10
2022-12-01T22:58:35.222Z,7.10
2022-12-01T23:01:22.190Z,6.40
2022-12-01T23:03:53.102Z,6.70
2022-12-01T23:07:21.552Z,7.10
2022-12-01T23:09:49.838Z,8.70
2022-12-01T23:12:32.043Z,6.60
2022-12-01T23:15:18.754Z,7.00
2022-12-01T23:17:48.975Z,6.80
2022-12-01T23:20:20.319Z,7.40
2022-12-01T23:22:48.646Z,7.10
2022-12-01T23:25:20.131Z,7.10
2022-12-01T23:27:51.210Z,7.40
2022-12-01T23:30:22.086Z,7.20
2022-12-01T23:33:18.674Z,6.40
2022-12-01T23:35:59.134Z,7.10
2022-12-01T23:38:42.962Z,6.80
2022-12-01T23:41:31.041Z,6.80
2022-12-01T23:44:04.718Z,7.80
2022-12-01T23:46:32.872Z,6.50
2022-12-01T23:49:07.469Z,6.90
2022-12-01T23:51:48.906Z,6.80
2022-12-01T23:54:28.036Z,6.80
2022-12-01T23:57:21.850Z,6.70
2022-12-01T23:59:56.296Z,6.70
